sensor_id;sensor_type;location;lat;lon;timestamp;P1;durP1;ratioP1;P2;durP2;ratioP2
20997;SDS011;10657;51.276;6.390;2023-03-31T00:00:16;8.60;;;1.15;;
20997;SDS011;10657;51.276;6.390;2023-03-31T00:02:43;4.65;;;1.00;;
20997;SDS011;10657;51.276;6.390;2023-03-31T00:05:11;5.60;;;1.17;;
20997;SDS011;10657;51.276;6.390;2023-03-31T00:07:43;5.90;;;1.10;;
20997;SDS011;10657;51.276;6.390;2023-03-31T00:10:11;5.90;;;1.10;;
20997;SDS011;10657;51.276;6.390;2023-03-31T00:12:44;3.95;;;0.95;;
20997;SDS011;10657;51.276;6.390;2023-03-31T00:15:11;6.63;;;1.20;;
20997;SDS011;10657;51.276;6.390;2023-03-31T00:17:38;5.75;;;1.17;;
20997;SDS011;10657;51.276;6.390;2023-03-31T00:20:05;5.38;;;1.25;;
20997;SDS011;10657;51.276;6.390;2023-03-31T00:22:37;5.43;;;1.45;;
20997;SDS011;10657;51.276;6.390;2023-03-31T00:25:08;5.95;;;1.15;;
20997;SDS011;10657;51.276;6.390;2023-03-31T00:27:36;7.28;;;1.27;;
20997;SDS011;10657;51.276;6.390;2023-03-31T00:30:02;7.60;;;1.17;;
20997;SDS011;10657;51.276;6.390;2023-03-31T00:32:30;8.10;;;1.30;;
20997;SDS011;10657;51.276;6.390;2023-03-31T00:34:58;6.57;;;1.40;;
20997;SDS011;10657;51.276;6.390;2023-03-31T00:37:27;7.75;;;1.00;;
20997;SDS011;10657;51.276;6.390;2023-03-31T00:39:55;6.57;;;1.40;;
20997;SDS011;10657;51.276;6.390;2023-03-31T00:42:22;7.13;;;1.45;;
20997;SDS011;10657;51.276;6.390;2023-03-31T00:47:42;8.38;;;1.40;;
20997;SDS011;10657;51.276;6.390;2023-03-31T00:50:26;7.18;;;1.65;;
20997;SDS011;10657;51.276;6.390;2023-03-31T00:52:56;5.18;;;1.27;;
20997;SDS011;10657;51.276;6.390;2023-03-31T00:55:30;3.47;;;0.80;;
20997;SDS011;10657;51.276;6.390;2023-03-31T00:58:03;6.47;;;1.20;;
20997;SDS011;10657;51.276;6.390;2023-03-31T01:00:32;5.85;;;1.27;;
20997;SDS011;10657;51.276;6.390;2023-03-31T01:03:00;10.23;;;1.48;;
20997;SDS011;10657;51.276;6.390;2023-03-31T01:08:15;3.85;;;0.98;;
20997;SDS011;10657;51.276;6.390;2023-03-31T01:10:45;5.60;;;1.10;;
20997;SDS011;10657;51.276;6.390;2023-03-31T01:13:15;6.22;;;1.05;;
20997;SDS011;10657;51.276;6.390;2023-03-31T01:15:43;4.65;;;0.93;;
20997;SDS011;10657;51.276;6.390;2023-03-31T01:18:10;4.20;;;1.20;;
20997;SDS011;10657;51.276;6.390;2023-03-31T01:34:57;3.45;;;0.88;;
20997;SDS011;10657;51.276;6.390;2023-03-31T01:50:31;6.55;;;1.20;;
20997;SDS011;10657;51.276;6.390;2023-03-31T01:53:13;4.50;;;1.10;;
20997;SDS011;10657;51.276;6.390;2023-03-31T01:55:45;7.47;;;1.67;;
20997;SDS011;10657;51.276;6.390;2023-03-31T01:58:20;8.98;;;1.90;;
20997;SDS011;10657;51.276;6.390;2023-03-31T02:00:55;8.52;;;1.25;;
20997;SDS011;10657;51.276;6.390;2023-03-31T02:03:27;8.93;;;1.63;;
20997;SDS011;10657;51.276;6.390;2023-03-31T02:05:59;6.93;;;1.45;;
20997;SDS011;10657;51.276;6.390;2023-03-31T02:08:36;14.25;;;2.05;;
20997;SDS011;10657;51.276;6.390;2023-03-31T02:11:30;10.18;;;1.80;;
20997;SDS011;10657;51.276;6.390;2023-03-31T02:13:59;7.10;;;1.27;;
20997;SDS011;10657;51.276;6.390;2023-03-31T02:16:29;4.82;;;1.13;;
20997;SDS011;10657;51.276;6.390;2023-03-31T02:18:58;9.55;;;1.73;;
20997;SDS011;10657;51.276;6.390;2023-03-31T02:21:29;13.93;;;2.22;;
20997;SDS011;10657;51.276;6.390;2023-03-31T02:23:59;9.55;;;1.48;;
20997;SDS011;10657;51.276;6.390;2023-03-31T02:26:30;5.78;;;1.35;;
20997;SDS011;10657;51.276;6.390;2023-03-31T02:29:02;8.45;;;1.80;;
20997;SDS011;10657;51.276;6.390;2023-03-31T02:34:01;9.90;;;1.80;;
20997;SDS011;10657;51.276;6.390;2023-03-31T02:36:28;12.35;;;1.88;;
20997;SDS011;10657;51.276;6.390;2023-03-31T02:38:58;10.25;;;1.75;;
20997;SDS011;10657;51.276;6.390;2023-03-31T02:41:30;3.65;;;0.98;;
20997;SDS011;10657;51.276;6.390;2023-03-31T02:43:57;8.68;;;2.08;;
20997;SDS011;10657;51.276;6.390;2023-03-31T02:46:24;9.15;;;1.73;;
20997;SDS011;10657;51.276;6.390;2023-03-31T02:48:52;4.57;;;1.10;;
20997;SDS011;10657;51.276;6.390;2023-03-31T03:00:42;9.10;;;1.67;;
20997;SDS011;10657;51.276;6.390;2023-03-31T03:08:26;10.35;;;1.73;;
20997;SDS011;10657;51.276;6.390;2023-03-31T03:13:45;5.00;;;1.15;;
20997;SDS011;10657;51.276;6.390;2023-03-31T03:16:38;11.48;;;1.80;;
20997;SDS011;10657;51.276;6.390;2023-03-31T03:19:08;5.88;;;1.33;;
20997;SDS011;10657;51.276;6.390;2023-03-31T03:21:42;4.85;;;1.10;;
20997;SDS011;10657;51.276;6.390;2023-03-31T03:24:10;9.85;;;1.60;;
20997;SDS011;10657;51.276;6.390;2023-03-31T03:26:37;7.70;;;1.33;;
20997;SDS011;10657;51.276;6.390;2023-03-31T03:29:05;5.35;;;1.00;;
20997;SDS011;10657;51.276;6.390;2023-03-31T03:31:31;3.58;;;0.88;;
20997;SDS011;10657;51.276;6.390;2023-03-31T03:33:58;4.40;;;1.02;;
20997;SDS011;10657;51.276;6.390;2023-03-31T03:36:25;7.28;;;1.60;;
20997;SDS011;10657;51.276;6.390;2023-03-31T03:38:52;8.65;;;1.33;;
20997;SDS011;10657;51.276;6.390;2023-03-31T03:41:19;5.53;;;1.15;;
20997;SDS011;10657;51.276;6.390;2023-03-31T03:43:45;5.93;;;1.52;;
20997;SDS011;10657;51.276;6.390;2023-03-31T03:46:12;3.20;;;0.95;;
20997;SDS011;10657;51.276;6.390;2023-03-31T03:48:39;3.60;;;0.85;;
20997;SDS011;10657;51.276;6.390;2023-03-31T03:51:05;8.25;;;1.48;;
20997;SDS011;10657;51.276;6.390;2023-03-31T03:53:32;6.38;;;1.27;;
20997;SDS011;10657;51.276;6.390;2023-03-31T03:55:59;6.05;;;1.42;;
20997;SDS011;10657;51.276;6.390;2023-03-31T03:58:26;6.68;;;1.00;;
20997;SDS011;10657;51.276;6.390;2023-03-31T04:00:53;8.27;;;1.60;;
20997;SDS011;10657;51.276;6.390;2023-03-31T04:03:19;3.35;;;0.98;;
20997;SDS011;10657;51.276;6.390;2023-03-31T04:05:46;4.05;;;1.02;;
20997;SDS011;10657;51.276;6.390;2023-03-31T04:08:15;5.50;;;1.00;;
20997;SDS011;10657;51.276;6.390;2023-03-31T04:10:44;2.58;;;0.85;;
20997;SDS011;10657;51.276;6.390;2023-03-31T04:13:11;4.05;;;0.93;;
20997;SDS011;10657;51.276;6.390;2023-03-31T04:15:38;1.08;;;0.52;;
20997;SDS011;10657;51.276;6.390;2023-03-31T04:18:05;3.63;;;0.82;;
20997;SDS011;10657;51.276;6.390;2023-03-31T04:20:31;4.55;;;0.93;;
20997;SDS011;10657;51.276;6.390;2023-03-31T04:22:59;3.05;;;0.60;;
20997;SDS011;10657;51.276;6.390;2023-03-31T04:25:28;7.57;;;1.20;;
20997;SDS011;10657;51.276;6.390;2023-03-31T04:27:55;2.72;;;0.80;;
20997;SDS011;10657;51.276;6.390;2023-03-31T04:30:23;6.70;;;1.00;;
20997;SDS011;10657;51.276;6.390;2023-03-31T04:32:59;5.13;;;1.23;;
20997;SDS011;10657;51.276;6.390;2023-03-31T04:35:28;5.43;;;1.05;;
20997;SDS011;10657;51.276;6.390;2023-03-31T04:38:15;2.85;;;0.70;;
20997;SDS011;10657;51.276;6.390;2023-03-31T04:40:47;3.97;;;0.98;;
20997;SDS011;10657;51.276;6.390;2023-03-31T04:43:15;2.80;;;0.82;;
20997;SDS011;10657;51.276;6.390;2023-03-31T04:45:43;4.03;;;0.98;;
20997;SDS011;10657;51.276;6.390;2023-03-31T04:48:10;4.47;;;1.02;;
20997;SDS011;10657;51.276;6.390;2023-03-31T04:50:36;2.78;;;0.65;;
20997;SDS011;10657;51.276;6.390;2023-03-31T04:53:04;3.42;;;0.93;;
20997;SDS011;10657;51.276;6.390;2023-03-31T04:55:31;4.00;;;1.17;;
20997;SDS011;10657;51.276;6.390;2023-03-31T04:57:58;2.22;;;0.68;;
20997;SDS011;10657;51.276;6.390;2023-03-31T05:00:26;5.75;;;0.90;;
20997;SDS011;10657;51.276;6.390;2023-03-31T05:02:53;6.18;;;1.13;;
20997;SDS011;10657;51.276;6.390;2023-03-31T05:05:20;4.75;;;1.05;;
20997;SDS011;10657;51.276;6.390;2023-03-31T05:07:47;3.35;;;1.20;;
20997;SDS011;10657;51.276;6.390;2023-03-31T05:10:14;3.45;;;1.08;;
20997;SDS011;10657;51.276;6.390;2023-03-31T05:12:41;7.88;;;1.35;;
20997;SDS011;10657;51.276;6.390;2023-03-31T05:15:07;3.90;;;1.00;;
20997;SDS011;10657;51.276;6.390;2023-03-31T05:17:34;3.50;;;0.82;;
20997;SDS011;10657;51.276;6.390;2023-03-31T05:20:01;6.13;;;1.20;;
20997;SDS011;10657;51.276;6.390;2023-03-31T05:22:36;5.47;;;1.10;;
20997;SDS011;10657;51.276;6.390;2023-03-31T05:25:04;3.63;;;1.00;;
20997;SDS011;10657;51.276;6.390;2023-03-31T05:27:32;4.25;;;0.90;;
20997;SDS011;10657;51.276;6.390;2023-03-31T05:29:59;5.32;;;1.00;;
20997;SDS011;10657;51.276;6.390;2023-03-31T05:32:26;5.80;;;1.20;;
20997;SDS011;10657;51.276;6.390;2023-03-31T05:34:53;3.72;;;1.08;;
20997;SDS011;10657;51.276;6.390;2023-03-31T05:37:23;4.50;;;1.00;;
20997;SDS011;10657;51.276;6.390;2023-03-31T05:39:51;3.97;;;0.95;;
20997;SDS011;10657;51.276;6.390;2023-03-31T05:42:18;4.00;;;1.05;;
20997;SDS011;10657;51.276;6.390;2023-03-31T05:44:46;2.47;;;0.75;;
20997;SDS011;10657;51.276;6.390;2023-03-31T05:47:12;1.75;;;0.70;;
20997;SDS011;10657;51.276;6.390;2023-03-31T05:49:39;2.88;;;0.90;;
20997;SDS011;10657;51.276;6.390;2023-03-31T05:52:06;5.80;;;1.23;;
20997;SDS011;10657;51.276;6.390;2023-03-31T05:54:34;4.45;;;0.98;;
20997;SDS011;10657;51.276;6.390;2023-03-31T05:57:00;3.40;;;0.85;;
20997;SDS011;10657;51.276;6.390;2023-03-31T05:59:27;8.68;;;1.17;;
20997;SDS011;10657;51.276;6.390;2023-03-31T06:01:54;3.85;;;0.98;;
20997;SDS011;10657;51.276;6.390;2023-03-31T06:04:21;6.38;;;1.02;;
20997;SDS011;10657;51.276;6.390;2023-03-31T06:06:49;5.10;;;0.98;;
20997;SDS011;10657;51.276;6.390;2023-03-31T06:09:16;5.88;;;1.10;;
20997;SDS011;10657;51.276;6.390;2023-03-31T06:11:43;4.53;;;0.95;;
20997;SDS011;10657;51.276;6.390;2023-03-31T06:14:10;6.05;;;1.33;;
20997;SDS011;10657;51.276;6.390;2023-03-31T06:16:36;2.45;;;0.80;;
20997;SDS011;10657;51.276;6.390;2023-03-31T06:19:03;7.85;;;1.25;;
20997;SDS011;10657;51.276;6.390;2023-03-31T06:21:31;2.97;;;0.77;;
20997;SDS011;10657;51.276;6.390;2023-03-31T06:23:58;4.78;;;0.90;;
20997;SDS011;10657;51.276;6.390;2023-03-31T06:26:25;5.05;;;1.02;;
20997;SDS011;10657;51.276;6.390;2023-03-31T06:28:52;6.00;;;1.25;;
20997;SDS011;10657;51.276;6.390;2023-03-31T06:31:21;3.35;;;0.75;;
20997;SDS011;10657;51.276;6.390;2023-03-31T06:33:48;4.63;;;0.70;;
20997;SDS011;10657;51.276;6.390;2023-03-31T06:36:17;2.67;;;0.70;;
20997;SDS011;10657;51.276;6.390;2023-03-31T06:38:45;6.22;;;0.88;;
20997;SDS011;10657;51.276;6.390;2023-03-31T06:41:13;3.42;;;0.80;;
20997;SDS011;10657;51.276;6.390;2023-03-31T06:43:40;2.88;;;0.70;;
20997;SDS011;10657;51.276;6.390;2023-03-31T06:46:07;7.35;;;1.20;;
20997;SDS011;10657;51.276;6.390;2023-03-31T06:48:35;3.00;;;0.90;;
20997;SDS011;10657;51.276;6.390;2023-03-31T06:51:03;3.20;;;0.80;;
20997;SDS011;10657;51.276;6.390;2023-03-31T06:53:31;6.38;;;1.10;;
20997;SDS011;10657;51.276;6.390;2023-03-31T06:55:58;2.47;;;0.63;;
20997;SDS011;10657;51.276;6.390;2023-03-31T06:58:24;5.68;;;1.10;;
20997;SDS011;10657;51.276;6.390;2023-03-31T07:00:54;3.88;;;0.73;;
20997;SDS011;10657;51.276;6.390;2023-03-31T07:03:21;3.97;;;1.00;;
20997;SDS011;10657;51.276;6.390;2023-03-31T07:05:50;4.90;;;1.00;;
20997;SDS011;10657;51.276;6.390;2023-03-31T07:08:18;6.45;;;1.10;;
20997;SDS011;10657;51.276;6.390;2023-03-31T07:10:47;5.68;;;1.20;;
20997;SDS011;10657;51.276;6.390;2023-03-31T07:13:15;3.35;;;0.75;;
20997;SDS011;10657;51.276;6.390;2023-03-31T07:15:45;6.03;;;1.13;;
20997;SDS011;10657;51.276;6.390;2023-03-31T07:18:12;3.95;;;0.93;;
20997;SDS011;10657;51.276;6.390;2023-03-31T07:20:41;5.75;;;1.15;;
20997;SDS011;10657;51.276;6.390;2023-03-31T07:23:08;4.82;;;1.05;;
20997;SDS011;10657;51.276;6.390;2023-03-31T07:25:35;3.97;;;0.85;;
20997;SDS011;10657;51.276;6.390;2023-03-31T07:28:02;6.00;;;1.30;;
20997;SDS011;10657;51.276;6.390;2023-03-31T07:30:30;7.95;;;1.55;;
20997;SDS011;10657;51.276;6.390;2023-03-31T07:32:58;5.45;;;1.10;;
20997;SDS011;10657;51.276;6.390;2023-03-31T07:35:25;9.77;;;1.58;;
20997;SDS011;10657;51.276;6.390;2023-03-31T07:37:56;7.45;;;0.98;;
20997;SDS011;10657;51.276;6.390;2023-03-31T07:40:24;7.80;;;1.60;;
20997;SDS011;10657;51.276;6.390;2023-03-31T07:42:52;8.10;;;1.38;;
20997;SDS011;10657;51.276;6.390;2023-03-31T07:45:20;6.28;;;1.48;;
20997;SDS011;10657;51.276;6.390;2023-03-31T07:47:48;9.82;;;1.38;;
20997;SDS011;10657;51.276;6.390;2023-03-31T07:50:16;9.45;;;1.33;;
20997;SDS011;10657;51.276;6.390;2023-03-31T07:52:43;7.22;;;1.50;;
20997;SDS011;10657;51.276;6.390;2023-03-31T07:55:12;7.30;;;1.25;;
20997;SDS011;10657;51.276;6.390;2023-03-31T07:57:39;7.20;;;1.40;;
20997;SDS011;10657;51.276;6.390;2023-03-31T08:00:06;10.00;;;2.10;;
20997;SDS011;10657;51.276;6.390;2023-03-31T08:02:35;13.63;;;2.97;;
20997;SDS011;10657;51.276;6.390;2023-03-31T08:05:04;8.18;;;1.58;;
20997;SDS011;10657;51.276;6.390;2023-03-31T08:07:35;9.90;;;1.58;;
20997;SDS011;10657;51.276;6.390;2023-03-31T08:10:04;9.20;;;1.40;;
20997;SDS011;10657;51.276;6.390;2023-03-31T08:12:33;8.20;;;1.60;;
20997;SDS011;10657;51.276;6.390;2023-03-31T08:14:59;6.38;;;1.45;;
20997;SDS011;10657;51.276;6.390;2023-03-31T08:17:26;6.60;;;1.33;;
20997;SDS011;10657;51.276;6.390;2023-03-31T08:19:53;6.38;;;1.50;;
20997;SDS011;10657;51.276;6.390;2023-03-31T08:22:19;9.68;;;2.17;;
20997;SDS011;10657;51.276;6.390;2023-03-31T08:24:48;12.43;;;2.08;;
20997;SDS011;10657;51.276;6.390;2023-03-31T08:27:14;12.20;;;2.08;;
20997;SDS011;10657;51.276;6.390;2023-03-31T08:29:42;8.90;;;1.63;;
20997;SDS011;10657;51.276;6.390;2023-03-31T08:32:08;8.52;;;2.10;;
20997;SDS011;10657;51.276;6.390;2023-03-31T08:34:35;10.52;;;2.17;;
20997;SDS011;10657;51.276;6.390;2023-03-31T08:37:03;10.77;;;2.47;;
20997;SDS011;10657;51.276;6.390;2023-03-31T08:39:31;9.70;;;2.08;;
20997;SDS011;10657;51.276;6.390;2023-03-31T08:42:00;10.50;;;1.98;;
20997;SDS011;10657;51.276;6.390;2023-03-31T08:44:36;8.50;;;1.65;;
20997;SDS011;10657;51.276;6.390;2023-03-31T08:47:12;7.05;;;1.48;;
20997;SDS011;10657;51.276;6.390;2023-03-31T08:49:52;10.50;;;2.50;;
20997;SDS011;10657;51.276;6.390;2023-03-31T08:52:24;9.38;;;2.45;;
20997;SDS011;10657;51.276;6.390;2023-03-31T08:54:57;11.85;;;2.45;;
20997;SDS011;10657;51.276;6.390;2023-03-31T08:58:12;9.88;;;1.73;;
20997;SDS011;10657;51.276;6.390;2023-03-31T09:00:16;11.60;;;2.50;;
20997;SDS011;10657;51.276;6.390;2023-03-31T09:08:48;11.90;;;2.85;;
20997;SDS011;10657;51.276;6.390;2023-03-31T09:16:53;8.63;;;1.73;;
20997;SDS011;10657;51.276;6.390;2023-03-31T09:19:35;10.27;;;2.28;;
20997;SDS011;10657;51.276;6.390;2023-03-31T09:22:05;9.02;;;1.75;;
20997;SDS011;10657;51.276;6.390;2023-03-31T09:27:32;11.77;;;2.40;;
20997;SDS011;10657;51.276;6.390;2023-03-31T09:30:04;14.48;;;2.58;;
20997;SDS011;10657;51.276;6.390;2023-03-31T09:32:52;9.63;;;1.90;;
20997;SDS011;10657;51.276;6.390;2023-03-31T09:35:30;13.70;;;2.80;;
20997;SDS011;10657;51.276;6.390;2023-03-31T09:37:58;15.43;;;2.70;;
20997;SDS011;10657;51.276;6.390;2023-03-31T09:40:26;10.88;;;2.83;;
20997;SDS011;10657;51.276;6.390;2023-03-31T09:42:58;14.20;;;2.83;;
20997;SDS011;10657;51.276;6.390;2023-03-31T09:45:27;10.07;;;2.28;;
20997;SDS011;10657;51.276;6.390;2023-03-31T09:47:56;12.10;;;2.83;;
20997;SDS011;10657;51.276;6.390;2023-03-31T09:50:26;10.77;;;2.40;;
20997;SDS011;10657;51.276;6.390;2023-03-31T09:52:55;12.48;;;2.55;;
20997;SDS011;10657;51.276;6.390;2023-03-31T09:55:25;12.27;;;2.67;;
20997;SDS011;10657;51.276;6.390;2023-03-31T09:58:06;13.23;;;2.60;;
20997;SDS011;10657;51.276;6.390;2023-03-31T10:00:36;13.95;;;2.50;;
20997;SDS011;10657;51.276;6.390;2023-03-31T10:03:09;14.45;;;2.47;;
20997;SDS011;10657;51.276;6.390;2023-03-31T10:05:39;18.23;;;3.15;;
20997;SDS011;10657;51.276;6.390;2023-03-31T10:10:50;15.45;;;2.55;;
20997;SDS011;10657;51.276;6.390;2023-03-31T10:13:19;11.60;;;2.38;;
20997;SDS011;10657;51.276;6.390;2023-03-31T10:15:52;14.15;;;2.80;;
20997;SDS011;10657;51.276;6.390;2023-03-31T10:18:20;13.57;;;2.38;;
20997;SDS011;10657;51.276;6.390;2023-03-31T10:20:58;11.95;;;2.40;;
20997;SDS011;10657;51.276;6.390;2023-03-31T10:23:30;8.55;;;1.92;;
20997;SDS011;10657;51.276;6.390;2023-03-31T10:25:58;12.77;;;2.38;;
20997;SDS011;10657;51.276;6.390;2023-03-31T10:28:26;14.60;;;3.30;;
20997;SDS011;10657;51.276;6.390;2023-03-31T10:30:56;13.05;;;2.58;;
20997;SDS011;10657;51.276;6.390;2023-03-31T10:33:29;11.35;;;2.70;;
20997;SDS011;10657;51.276;6.390;2023-03-31T10:36:01;10.63;;;2.28;;
20997;SDS011;10657;51.276;6.390;2023-03-31T10:38:35;12.20;;;2.50;;
20997;SDS011;10657;51.276;6.390;2023-03-31T10:41:05;9.00;;;2.08;;
20997;SDS011;10657;51.276;6.390;2023-03-31T10:46:05;8.00;;;1.88;;
20997;SDS011;10657;51.276;6.390;2023-03-31T10:48:33;8.77;;;1.90;;
20997;SDS011;10657;51.276;6.390;2023-03-31T10:51:10;11.27;;;2.25;;
20997;SDS011;10657;51.276;6.390;2023-03-31T10:53:42;8.45;;;1.92;;
20997;SDS011;10657;51.276;6.390;2023-03-31T10:56:25;7.25;;;1.65;;
20997;SDS011;10657;51.276;6.390;2023-03-31T11:07:47;6.47;;;1.35;;
20997;SDS011;10657;51.276;6.390;2023-03-31T11:13:17;4.55;;;1.02;;
20997;SDS011;10657;51.276;6.390;2023-03-31T11:15:52;8.40;;;1.63;;
20997;SDS011;10657;51.276;6.390;2023-03-31T11:18:54;5.93;;;1.13;;
20997;SDS011;10657;51.276;6.390;2023-03-31T11:21:28;6.55;;;1.10;;
20997;SDS011;10657;51.276;6.390;2023-03-31T11:30:00;10.15;;;1.75;;
20997;SDS011;10657;51.276;6.390;2023-03-31T11:35:41;6.82;;;1.42;;
20997;SDS011;10657;51.276;6.390;2023-03-31T11:38:24;6.65;;;1.58;;
20997;SDS011;10657;51.276;6.390;2023-03-31T11:41:14;8.82;;;1.95;;
20997;SDS011;10657;51.276;6.390;2023-03-31T11:43:54;10.52;;;1.65;;
20997;SDS011;10657;51.276;6.390;2023-03-31T11:49:26;14.88;;;2.78;;
20997;SDS011;10657;51.276;6.390;2023-03-31T11:52:02;8.77;;;1.60;;
20997;SDS011;10657;51.276;6.390;2023-03-31T11:54:41;8.75;;;1.67;;
20997;SDS011;10657;51.276;6.390;2023-03-31T11:57:26;10.18;;;2.05;;
20997;SDS011;10657;51.276;6.390;2023-03-31T12:00:11;11.32;;;1.90;;
20997;SDS011;10657;51.276;6.390;2023-03-31T12:05:30;13.90;;;2.35;;
20997;SDS011;10657;51.276;6.390;2023-03-31T12:08:20;10.32;;;2.42;;
20997;SDS011;10657;51.276;6.390;2023-03-31T12:11:08;11.98;;;2.42;;
20997;SDS011;10657;51.276;6.390;2023-03-31T12:16:53;12.23;;;1.98;;
20997;SDS011;10657;51.276;6.390;2023-03-31T12:22:34;10.32;;;1.85;;
20997;SDS011;10657;51.276;6.390;2023-03-31T12:25:07;13.88;;;2.80;;
20997;SDS011;10657;51.276;6.390;2023-03-31T12:27:38;11.90;;;2.75;;
20997;SDS011;10657;51.276;6.390;2023-03-31T12:32:54;11.90;;;2.95;;
20997;SDS011;10657;51.276;6.390;2023-03-31T12:41:37;11.15;;;2.05;;
20997;SDS011;10657;51.276;6.390;2023-03-31T12:44:34;9.32;;;1.63;;
20997;SDS011;10657;51.276;6.390;2023-03-31T12:47:22;5.43;;;1.27;;
20997;SDS011;10657;51.276;6.390;2023-03-31T12:50:35;15.65;;;2.33;;
20997;SDS011;10657;51.276;6.390;2023-03-31T12:55:45;8.82;;;1.88;;
20997;SDS011;10657;51.276;6.390;2023-03-31T13:01:02;8.15;;;1.50;;
20997;SDS011;10657;51.276;6.390;2023-03-31T13:06:46;9.80;;;1.50;;
20997;SDS011;10657;51.276;6.390;2023-03-31T13:09:04;8.98;;;1.50;;
20997;SDS011;10657;51.276;6.390;2023-03-31T13:11:40;7.47;;;1.77;;
20997;SDS011;10657;51.276;6.390;2023-03-31T13:14:14;8.07;;;1.42;;
20997;SDS011;10657;51.276;6.390;2023-03-31T13:16:47;10.80;;;1.88;;
20997;SDS011;10657;51.276;6.390;2023-03-31T13:19:31;7.15;;;1.58;;
20997;SDS011;10657;51.276;6.390;2023-03-31T13:22:03;5.80;;;1.30;;
20997;SDS011;10657;51.276;6.390;2023-03-31T13:24:31;9.65;;;1.88;;
20997;SDS011;10657;51.276;6.390;2023-03-31T13:29:59;5.40;;;1.02;;
20997;SDS011;10657;51.276;6.390;2023-03-31T13:32:26;10.60;;;2.05;;
20997;SDS011;10657;51.276;6.390;2023-03-31T13:34:55;7.55;;;1.42;;
20997;SDS011;10657;51.276;6.390;2023-03-31T13:40:51;7.20;;;1.65;;
20997;SDS011;10657;51.276;6.390;2023-03-31T13:51:55;5.80;;;1.40;;
20997;SDS011;10657;51.276;6.390;2023-03-31T14:00:11;5.50;;;0.93;;
20997;SDS011;10657;51.276;6.390;2023-03-31T14:02:48;9.45;;;1.52;;
20997;SDS011;10657;51.276;6.390;2023-03-31T14:05:32;9.75;;;1.70;;
20997;SDS011;10657;51.276;6.390;2023-03-31T14:08:23;9.40;;;1.50;;
20997;SDS011;10657;51.276;6.390;2023-03-31T14:11:13;7.85;;;1.38;;
20997;SDS011;10657;51.276;6.390;2023-03-31T14:16:31;9.60;;;1.58;;
20997;SDS011;10657;51.276;6.390;2023-03-31T14:22:14;7.50;;;1.70;;
20997;SDS011;10657;51.276;6.390;2023-03-31T14:30:28;9.48;;;1.63;;
20997;SDS011;10657;51.276;6.390;2023-03-31T14:38:23;9.95;;;1.92;;
20997;SDS011;10657;51.276;6.390;2023-03-31T14:40:55;11.68;;;2.03;;
20997;SDS011;10657;51.276;6.390;2023-03-31T14:43:27;6.97;;;1.55;;
20997;SDS011;10657;51.276;6.390;2023-03-31T14:46:00;7.07;;;1.50;;
20997;SDS011;10657;51.276;6.390;2023-03-31T14:48:31;7.47;;;1.50;;
20997;SDS011;10657;51.276;6.390;2023-03-31T14:51:00;11.23;;;1.50;;
20997;SDS011;10657;51.276;6.390;2023-03-31T14:53:28;8.57;;;1.60;;
20997;SDS011;10657;51.276;6.390;2023-03-31T14:56:05;10.45;;;1.77;;
20997;SDS011;10657;51.276;6.390;2023-03-31T14:58:44;9.38;;;1.80;;
20997;SDS011;10657;51.276;6.390;2023-03-31T15:01:17;9.77;;;2.63;;
20997;SDS011;10657;51.276;6.390;2023-03-31T15:03:49;7.22;;;1.45;;
20997;SDS011;10657;51.276;6.390;2023-03-31T15:06:17;9.27;;;1.63;;
20997;SDS011;10657;51.276;6.390;2023-03-31T15:08:44;11.50;;;2.05;;
20997;SDS011;10657;51.276;6.390;2023-03-31T15:11:14;6.10;;;1.42;;
20997;SDS011;10657;51.276;6.390;2023-03-31T15:13:48;9.65;;;1.65;;
20997;SDS011;10657;51.276;6.390;2023-03-31T15:16:37;5.80;;;1.02;;
20997;SDS011;10657;51.276;6.390;2023-03-31T15:19:13;8.07;;;1.58;;
20997;SDS011;10657;51.276;6.390;2023-03-31T15:21:54;5.78;;;0.98;;
20997;SDS011;10657;51.276;6.390;2023-03-31T15:24:27;5.00;;;1.10;;
20997;SDS011;10657;51.276;6.390;2023-03-31T15:27:02;3.22;;;0.90;;
20997;SDS011;10657;51.276;6.390;2023-03-31T15:29:48;6.75;;;1.15;;
20997;SDS011;10657;51.276;6.390;2023-03-31T15:32:24;5.25;;;1.17;;
20997;SDS011;10657;51.276;6.390;2023-03-31T15:34:54;6.45;;;1.20;;
20997;SDS011;10657;51.276;6.390;2023-03-31T15:37:29;4.72;;;0.68;;
20997;SDS011;10657;51.276;6.390;2023-03-31T15:40:01;7.68;;;1.02;;
20997;SDS011;10657;51.276;6.390;2023-03-31T15:42:33;6.72;;;1.20;;
20997;SDS011;10657;51.276;6.390;2023-03-31T15:45:26;5.78;;;1.45;;
20997;SDS011;10657;51.276;6.390;2023-03-31T15:48:01;3.85;;;0.95;;
20997;SDS011;10657;51.276;6.390;2023-03-31T15:50:29;7.68;;;1.38;;
20997;SDS011;10657;51.276;6.390;2023-03-31T15:52:58;3.65;;;0.80;;
20997;SDS011;10657;51.276;6.390;2023-03-31T15:57:55;4.07;;;0.73;;
20997;SDS011;10657;51.276;6.390;2023-03-31T16:02:59;7.93;;;1.08;;
20997;SDS011;10657;51.276;6.390;2023-03-31T16:08:18;4.18;;;0.85;;
20997;SDS011;10657;51.276;6.390;2023-03-31T16:10:47;4.88;;;0.90;;
20997;SDS011;10657;51.276;6.390;2023-03-31T16:13:20;4.93;;;1.00;;
20997;SDS011;10657;51.276;6.390;2023-03-31T16:15:50;6.80;;;1.00;;
20997;SDS011;10657;51.276;6.390;2023-03-31T16:18:27;5.10;;;0.80;;
20997;SDS011;10657;51.276;6.390;2023-03-31T16:20:59;6.15;;;1.05;;
20997;SDS011;10657;51.276;6.390;2023-03-31T16:23:30;3.38;;;0.80;;
20997;SDS011;10657;51.276;6.390;2023-03-31T16:25:59;3.47;;;1.00;;
20997;SDS011;10657;51.276;6.390;2023-03-31T16:28:30;6.05;;;1.30;;
20997;SDS011;10657;51.276;6.390;2023-03-31T16:30:59;4.22;;;0.77;;
20997;SDS011;10657;51.276;6.390;2023-03-31T16:33:27;3.72;;;0.75;;
20997;SDS011;10657;51.276;6.390;2023-03-31T16:35:56;4.30;;;0.90;;
20997;SDS011;10657;51.276;6.390;2023-03-31T16:38:25;2.75;;;0.60;;
20997;SDS011;10657;51.276;6.390;2023-03-31T16:40:53;3.47;;;0.85;;
20997;SDS011;10657;51.276;6.390;2023-03-31T16:43:26;3.45;;;0.73;;
20997;SDS011;10657;51.276;6.390;2023-03-31T16:45:54;2.83;;;0.70;;
20997;SDS011;10657;51.276;6.390;2023-03-31T16:48:26;2.63;;;0.90;;
20997;SDS011;10657;51.276;6.390;2023-03-31T16:50:54;6.32;;;1.25;;
20997;SDS011;10657;51.276;6.390;2023-03-31T16:53:24;5.25;;;1.30;;
20997;SDS011;10657;51.276;6.390;2023-03-31T16:55:53;4.07;;;0.70;;
20997;SDS011;10657;51.276;6.390;2023-03-31T16:58:20;7.88;;;1.58;;
20997;SDS011;10657;51.276;6.390;2023-03-31T17:00:49;6.18;;;0.93;;
20997;SDS011;10657;51.276;6.390;2023-03-31T17:03:16;4.10;;;1.00;;
20997;SDS011;10657;51.276;6.390;2023-03-31T17:05:45;4.22;;;1.13;;
20997;SDS011;10657;51.276;6.390;2023-03-31T17:08:13;7.63;;;1.00;;
20997;SDS011;10657;51.276;6.390;2023-03-31T17:10:41;4.45;;;1.10;;
20997;SDS011;10657;51.276;6.390;2023-03-31T17:13:24;7.30;;;1.20;;
20997;SDS011;10657;51.276;6.390;2023-03-31T17:15:51;4.15;;;0.90;;
20997;SDS011;10657;51.276;6.390;2023-03-31T17:18:33;5.68;;;0.90;;
20997;SDS011;10657;51.276;6.390;2023-03-31T17:21:05;4.10;;;1.00;;
20997;SDS011;10657;51.276;6.390;2023-03-31T17:23:33;6.55;;;1.58;;
20997;SDS011;10657;51.276;6.390;2023-03-31T17:26:01;3.90;;;1.02;;
20997;SDS011;10657;51.276;6.390;2023-03-31T17:28:29;4.10;;;0.90;;
20997;SDS011;10657;51.276;6.390;2023-03-31T17:30:56;3.58;;;1.10;;
20997;SDS011;10657;51.276;6.390;2023-03-31T17:33:24;4.30;;;0.93;;
20997;SDS011;10657;51.276;6.390;2023-03-31T17:35:55;3.38;;;0.75;;
20997;SDS011;10657;51.276;6.390;2023-03-31T17:38:24;4.47;;;1.10;;
20997;SDS011;10657;51.276;6.390;2023-03-31T17:40:51;3.60;;;0.80;;
20997;SDS011;10657;51.276;6.390;2023-03-31T17:43:19;8.57;;;2.30;;
20997;SDS011;10657;51.276;6.390;2023-03-31T17:45:46;5.43;;;1.08;;
20997;SDS011;10657;51.276;6.390;2023-03-31T17:48:13;4.18;;;0.88;;
20997;SDS011;10657;51.276;6.390;2023-03-31T17:50:41;3.83;;;0.90;;
20997;SDS011;10657;51.276;6.390;2023-03-31T17:53:08;7.00;;;1.17;;
20997;SDS011;10657;51.276;6.390;2023-03-31T17:55:35;5.75;;;0.93;;